sensor_id;sensor_type;location;lat;lon;timestamp;temperature;humidity
50067;DHT22;35952;52.524;13.340;2023-05-10T00:00:54;13.50;67.40
50067;DHT22;35952;52.524;13.340;2023-05-10T00:03:20;13.50;67.50
50067;DHT22;35952;52.524;13.340;2023-05-10T00:05:46;13.50;68.80
50067;DHT22;35952;52.524;13.340;2023-05-10T00:08:11;13.50;69.60
50067;DHT22;35952;52.524;13.340;2023-05-10T00:10:37;13.40;69.80
50067;DHT22;35952;52.524;13.340;2023-05-10T00:13:02;13.40;71.10
50067;DHT22;35952;52.524;13.340;2023-05-10T00:15:28;13.30;71.90
50067;DHT22;35952;52.524;13.340;2023-05-10T00:17:56;13.30;73.20
50067;DHT22;35952;52.524;13.340;2023-05-10T00:20:21;13.20;74.80
50067;DHT22;35952;52.524;13.340;2023-05-10T00:22:47;13.20;75.60
50067;DHT22;35952;52.524;13.340;2023-05-10T00:25:12;13.20;78.00
50067;DHT22;35952;52.524;13.340;2023-05-10T00:27:38;13.20;79.10
50067;DHT22;35952;52.524;13.340;2023-05-10T00:30:04;13.10;79.20
50067;DHT22;35952;52.524;13.340;2023-05-10T00:32:29;13.10;80.10
50067;DHT22;35952;52.524;13.340;2023-05-10T00:34:55;13.10;81.20
50067;DHT22;35952;52.524;13.340;2023-05-10T00:37:21;13.10;82.10
50067;DHT22;35952;52.524;13.340;2023-05-10T00:39:46;13.00;83.50
50067;DHT22;35952;52.524;13.340;2023-05-10T00:42:12;13.10;83.30
50067;DHT22;35952;52.524;13.340;2023-05-10T00:44:37;13.00;85.40
50067;DHT22;35952;52.524;13.340;2023-05-10T00:47:03;13.00;85.30
50067;DHT22;35952;52.524;13.340;2023-05-10T00:49:29;13.00;86.10
50067;DHT22;35952;52.524;13.340;2023-05-10T00:51:55;12.90;87.30
50067;DHT22;35952;52.524;13.340;2023-05-10T00:54:21;12.80;90.10
50067;DHT22;35952;52.524;13.340;2023-05-10T00:56:46;12.80;90.70
50067;DHT22;35952;52.524;13.340;2023-05-10T00:59:15;12.80;90.80
50067;DHT22;35952;52.524;13.340;2023-05-10T01:01:42;12.80;91.30
50067;DHT22;35952;52.524;13.340;2023-05-10T01:04:09;12.80;92.10
50067;DHT22;35952;52.524;13.340;2023-05-10T01:06:36;12.80;92.10
50067;DHT22;35952;52.524;13.340;2023-05-10T01:09:01;12.80;91.80
50067;DHT22;35952;52.524;13.340;2023-05-10T01:11:27;12.80;92.10
50067;DHT22;35952;52.524;13.340;2023-05-10T01:13:56;12.80;92.70
50067;DHT22;35952;52.524;13.340;2023-05-10T01:16:23;12.70;93.20
50067;DHT22;35952;52.524;13.340;2023-05-10T01:18:49;12.60;93.90
50067;DHT22;35952;52.524;13.340;2023-05-10T01:27:24;12.60;94.40
50067;DHT22;35952;52.524;13.340;2023-05-10T01:35:37;12.40;96.60
50067;DHT22;35952;52.524;13.340;2023-05-10T01:38:23;12.30;97.40
50067;DHT22;35952;52.524;13.340;2023-05-10T01:41:21;12.40;97.70
50067;DHT22;35952;52.524;13.340;2023-05-10T01:46:38;12.40;98.10
50067;DHT22;35952;52.524;13.340;2023-05-10T01:49:09;12.30;98.60
50067;DHT22;35952;52.524;13.340;2023-05-10T01:51:40;12.20;99.90
50067;DHT22;35952;52.524;13.340;2023-05-10T01:54:08;12.20;99.90
50067;DHT22;35952;52.524;13.340;2023-05-10T01:56:35;12.10;99.90
50067;DHT22;35952;52.524;13.340;2023-05-10T01:59:07;12.10;99.90
50067;DHT22;35952;52.524;13.340;2023-05-10T02:01:36;12.20;99.90
50067;DHT22;35952;52.524;13.340;2023-05-10T02:04:02;12.10;99.90
50067;DHT22;35952;52.524;13.340;2023-05-10T02:06:30;12.10;99.90
50067;DHT22;35952;52.524;13.340;2023-05-10T02:08:57;12.10;99.90
50067;DHT22;35952;52.524;13.340;2023-05-10T02:11:23;12.00;99.90
50067;DHT22;35952;52.524;13.340;2023-05-10T02:13:51;11.90;99.90
50067;DHT22;35952;52.524;13.340;2023-05-10T02:16:19;11.90;99.90
50067;DHT22;35952;52.524;13.340;2023-05-10T02:18:48;11.80;99.90
50067;DHT22;35952;52.524;13.340;2023-05-10T02:21:15;11.80;99.90
50067;DHT22;35952;52.524;13.340;2023-05-10T02:23:43;11.90;99.90
50067;DHT22;35952;52.524;13.340;2023-05-10T02:26:10;11.80;99.90
50067;DHT22;35952;52.524;13.340;2023-05-10T02:28:37;11.80;99.90
50067;DHT22;35952;52.524;13.340;2023-05-10T02:31:04;11.80;99.90
50067;DHT22;35952;52.524;13.340;2023-05-10T02:33:31;11.70;99.90
50067;DHT22;35952;52.524;13.340;2023-05-10T02:35:57;11.70;99.90
50067;DHT22;35952;52.524;13.340;2023-05-10T02:38:25;11.70;99.90
50067;DHT22;35952;52.524;13.340;2023-05-10T02:40:51;11.70;99.90
50067;DHT22;35952;52.524;13.340;2023-05-10T02:43:18;11.70;99.90
50067;DHT22;35952;52.524;13.340;2023-05-10T02:45:47;11.60;99.90
50067;DHT22;35952;52.524;13.340;2023-05-10T02:48:13;11.60;99.90
50067;DHT22;35952;52.524;13.340;2023-05-10T02:50:43;11.60;99.90
50067;DHT22;35952;52.524;13.340;2023-05-10T02:53:11;11.50;99.90
50067;DHT22;35952;52.524;13.340;2023-05-10T02:55:40;11.50;99.90
50067;DHT22;35952;52.524;13.340;2023-05-10T02:58:08;11.40;99.90
50067;DHT22;35952;52.524;13.340;2023-05-10T03:00:34;11.30;99.90
50067;DHT22;35952;52.524;13.340;2023-05-10T03:03:00;11.50;99.90
50067;DHT22;35952;52.524;13.340;2023-05-10T03:05:26;11.40;99.90
50067;DHT22;35952;52.524;13.340;2023-05-10T03:07:52;11.40;99.90
50067;DHT22;35952;52.524;13.340;2023-05-10T03:10:19;11.50;99.90
50067;DHT22;35952;52.524;13.340;2023-05-10T03:13:48;11.50;99.90
50067;DHT22;35952;52.524;13.340;2023-05-10T03:16:01;11.40;99.90
50067;DHT22;35952;52.524;13.340;2023-05-10T03:18:37;11.30;99.90
50067;DHT22;35952;52.524;13.340;2023-05-10T03:21:07;11.40;99.90
50067;DHT22;35952;52.524;13.340;2023-05-10T03:23:40;11.40;99.90
50067;DHT22;35952;52.524;13.340;2023-05-10T03:26:07;11.40;99.90
50067;DHT22;35952;52.524;13.340;2023-05-10T03:28:34;11.30;99.90
50067;DHT22;35952;52.524;13.340;2023-05-10T03:31:01;11.30;99.90
50067;DHT22;35952;52.524;13.340;2023-05-10T03:33:27;11.20;99.90
50067;DHT22;35952;52.524;13.340;2023-05-10T03:35:53;11.20;99.90
50067;DHT22;35952;52.524;13.340;2023-05-10T03:38:18;11.20;99.90
50067;DHT22;35952;52.524;13.340;2023-05-10T03:40:44;11.20;99.90
50067;DHT22;35952;52.524;13.340;2023-05-10T03:43:09;11.30;99.90
50067;DHT22;35952;52.524;13.340;2023-05-10T03:45:35;11.20;99.90
50067;DHT22;35952;52.524;13.340;2023-05-10T03:48:00;11.20;99.90
50067;DHT22;35952;52.524;13.340;2023-05-10T03:50:26;11.20;99.90
50067;DHT22;35952;52.524;13.340;2023-05-10T03:52:52;11.20;99.90
50067;DHT22;35952;52.524;13.340;2023-05-10T03:55:17;11.30;99.90
50067;DHT22;35952;52.524;13.340;2023-05-10T03:57:43;11.30;99.90
50067;DHT22;35952;52.524;13.340;2023-05-10T04:00:09;11.20;99.90
50067;DHT22;35952;52.524;13.340;2023-05-10T04:02:35;11.20;99.90
50067;DHT22;35952;52.524;13.340;2023-05-10T04:05:00;11.20;99.90
50067;DHT22;35952;52.524;13.340;2023-05-10T04:07:26;11.20;99.90
50067;DHT22;35952;52.524;13.340;2023-05-10T04:09:51;11.40;99.90
50067;DHT22;35952;52.524;13.340;2023-05-10T04:12:17;11.30;99.90
50067;DHT22;35952;52.524;13.340;2023-05-10T04:14:43;11.30;99.90
50067;DHT22;35952;52.524;13.340;2023-05-10T04:17:08;11.40;99.90
50067;DHT22;35952;52.524;13.340;2023-05-10T04:19:34;11.40;99.90
50067;DHT22;35952;52.524;13.340;2023-05-10T04:21:59;11.60;99.90
50067;DHT22;35952;52.524;13.340;2023-05-10T04:24:25;11.60;99.90
50067;DHT22;35952;52.524;13.340;2023-05-10T04:26:51;11.50;99.90
50067;DHT22;35952;52.524;13.340;2023-05-10T04:29:16;11.50;99.90
50067;DHT22;35952;52.524;13.340;2023-05-10T04:31:42;11.60;99.90
50067;DHT22;35952;52.524;13.340;2023-05-10T04:34:08;11.60;99.90
50067;DHT22;35952;52.524;13.340;2023-05-10T04:36:33;11.70;99.90
50067;DHT22;35952;52.524;13.340;2023-05-10T04:39:01;11.70;99.90
50067;DHT22;35952;52.524;13.340;2023-05-10T04:41:28;11.80;99.90
50067;DHT22;35952;52.524;13.340;2023-05-10T04:43:53;12.00;99.90
50067;DHT22;35952;52.524;13.340;2023-05-10T04:46:19;12.00;99.90
50067;DHT22;35952;52.524;13.340;2023-05-10T04:48:44;12.10;99.90
50067;DHT22;35952;52.524;13.340;2023-05-10T04:51:10;12.20;99.90
50067;DHT22;35952;52.524;13.340;2023-05-10T04:53:36;12.20;99.90
50067;DHT22;35952;52.524;13.340;2023-05-10T04:56:01;12.40;99.90
50067;DHT22;35952;52.524;13.340;2023-05-10T04:58:27;12.40;99.90
50067;DHT22;35952;52.524;13.340;2023-05-10T05:00:52;12.60;99.90
50067;DHT22;35952;52.524;13.340;2023-05-10T05:03:18;12.70;99.90
50067;DHT22;35952;52.524;13.340;2023-05-10T05:05:44;12.80;99.90
50067;DHT22;35952;52.524;13.340;2023-05-10T05:08:10;13.00;99.90
50067;DHT22;35952;52.524;13.340;2023-05-10T05:10:35;13.20;99.90
50067;DHT22;35952;52.524;13.340;2023-05-10T05:13:01;13.30;99.90
50067;DHT22;35952;52.524;13.340;2023-05-10T05:15:26;13.50;99.30
50067;DHT22;35952;52.524;13.340;2023-05-10T05:17:52;13.50;98.10
50067;DHT22;35952;52.524;13.340;2023-05-10T05:20:18;13.70;97.70
50067;DHT22;35952;52.524;13.340;2023-05-10T05:22:44;14.30;95.40
50067;DHT22;35952;52.524;13.340;2023-05-10T05:25:10;15.60;91.00
50067;DHT22;35952;52.524;13.340;2023-05-10T05:27:37;16.70;80.90
50067;DHT22;35952;52.524;13.340;2023-05-10T05:30:03;17.90;74.60
50067;DHT22;35952;52.524;13.340;2023-05-10T05:32:32;18.80;65.00
50067;DHT22;35952;52.524;13.340;2023-05-10T05:34:57;18.80;60.60
50067;DHT22;35952;52.524;13.340;2023-05-10T05:37:23;19.60;58.10
50067;DHT22;35952;52.524;13.340;2023-05-10T05:39:50;19.70;57.40
50067;DHT22;35952;52.524;13.340;2023-05-10T05:42:15;21.00;54.40
50067;DHT22;35952;52.524;13.340;2023-05-10T05:44:43;20.10;53.60
50067;DHT22;35952;52.524;13.340;2023-05-10T05:47:08;20.10;54.30
50067;DHT22;35952;52.524;13.340;2023-05-10T05:49:34;20.30;52.70
50067;DHT22;35952;52.524;13.340;2023-05-10T05:52:01;21.30;51.70
50067;DHT22;35952;52.524;13.340;2023-05-10T05:54:27;20.40;51.80
50067;DHT22;35952;52.524;13.340;2023-05-10T05:56:56;21.80;51.30
50067;DHT22;35952;52.524;13.340;2023-05-10T05:59:22;21.30;51.50
50067;DHT22;35952;52.524;13.340;2023-05-10T06:01:48;20.40;50.70
50067;DHT22;35952;52.524;13.340;2023-05-10T06:04:14;22.20;50.50
50067;DHT22;35952;52.524;13.340;2023-05-10T06:06:39;21.60;49.30
50067;DHT22;35952;52.524;13.340;2023-05-10T06:09:05;22.80;49.10
50067;DHT22;35952;52.524;13.340;2023-05-10T06:11:30;22.40;47.30
50067;DHT22;35952;52.524;13.340;2023-05-10T06:13:58;23.10;47.20
50067;DHT22;35952;52.524;13.340;2023-05-10T06:16:23;20.60;50.10
50067;DHT22;35952;52.524;13.340;2023-05-10T06:18:49;21.90;49.10
50067;DHT22;35952;52.524;13.340;2023-05-10T06:21:14;23.00;47.80
50067;DHT22;35952;52.524;13.340;2023-05-10T06:23:41;24.00;46.80
50067;DHT22;35952;52.524;13.340;2023-05-10T06:26:07;23.50;44.70
50067;DHT22;35952;52.524;13.340;2023-05-10T06:28:32;23.30;45.10
50067;DHT22;35952;52.524;13.340;2023-05-10T06:30:59;22.70;47.00
50067;DHT22;35952;52.524;13.340;2023-05-10T06:33:24;23.80;47.10
50067;DHT22;35952;52.524;13.340;2023-05-10T06:35:50;24.30;45.20
50067;DHT22;35952;52.524;13.340;2023-05-10T06:38:15;24.00;43.50
50067;DHT22;35952;52.524;13.340;2023-05-10T06:40:41;23.60;44.60
50067;DHT22;35952;52.524;13.340;2023-05-10T06:43:07;23.90;45.40
50067;DHT22;35952;52.524;13.340;2023-05-10T06:45:33;24.00;45.70
50067;DHT22;35952;52.524;13.340;2023-05-10T06:47:58;23.10;45.10
50067;DHT22;35952;52.524;13.340;2023-05-10T06:50:24;24.60;45.90
50067;DHT22;35952;52.524;13.340;2023-05-10T06:52:49;24.90;44.30
50067;DHT22;35952;52.524;13.340;2023-05-10T06:55:15;24.70;44.10
50067;DHT22;35952;52.524;13.340;2023-05-10T06:57:41;24.90;43.70
50067;DHT22;35952;52.524;13.340;2023-05-10T07:00:07;24.90;43.40
50067;DHT22;35952;52.524;13.340;2023-05-10T07:02:33;24.20;44.40
50067;DHT22;35952;52.524;13.340;2023-05-10T07:04:58;24.30;44.30
50067;DHT22;35952;52.524;13.340;2023-05-10T07:07:24;25.70;44.10
50067;DHT22;35952;52.524;13.340;2023-05-10T07:09:49;24.50;42.50
50067;DHT22;35952;52.524;13.340;2023-05-10T07:12:15;24.20;44.60
50067;DHT22;35952;52.524;13.340;2023-05-10T07:14:40;24.60;44.40
50067;DHT22;35952;52.524;13.340;2023-05-10T07:17:06;24.60;43.30
50067;DHT22;35952;52.524;13.340;2023-05-10T07:19:31;25.20;42.60
50067;DHT22;35952;52.524;13.340;2023-05-10T07:21:58;25.30;43.80
50067;DHT22;35952;52.524;13.340;2023-05-10T07:24:37;25.70;41.80
50067;DHT22;35952;52.524;13.340;2023-05-10T07:27:02;24.80;41.80
50067;DHT22;35952;52.524;13.340;2023-05-10T07:29:28;24.00;44.10
50067;DHT22;35952;52.524;13.340;2023-05-10T07:31:54;25.40;43.20
50067;DHT22;35952;52.524;13.340;2023-05-10T07:34:19;26.80;41.70
50067;DHT22;35952;52.524;13.340;2023-05-10T07:36:45;27.70;39.80
50067;DHT22;35952;52.524;13.340;2023-05-10T07:39:10;27.80;38.80
50067;DHT22;35952;52.524;13.340;2023-05-10T07:41:36;26.70;40.10
50067;DHT22;35952;52.524;13.340;2023-05-10T07:44:03;27.80;39.70
50067;DHT22;35952;52.524;13.340;2023-05-10T07:46:29;28.90;38.70
50067;DHT22;35952;52.524;13.340;2023-05-10T07:48:54;28.50;38.50
50067;DHT22;35952;52.524;13.340;2023-05-10T07:51:20;28.20;37.90
50067;DHT22;35952;52.524;13.340;2023-05-10T07:53:45;28.30;37.80
50067;DHT22;35952;52.524;13.340;2023-05-10T07:56:26;28.40;37.50
50067;DHT22;35952;52.524;13.340;2023-05-10T07:58:55;28.10;38.00
50067;DHT22;35952;52.524;13.340;2023-05-10T08:01:21;27.90;39.00
50067;DHT22;35952;52.524;13.340;2023-05-10T08:03:47;28.30;37.00
50067;DHT22;35952;52.524;13.340;2023-05-10T08:06:17;28.10;37.90
50067;DHT22;35952;52.524;13.340;2023-05-10T08:08:42;28.10;37.50
50067;DHT22;35952;52.524;13.340;2023-05-10T08:11:08;26.80;37.00
50067;DHT22;35952;52.524;13.340;2023-05-10T08:13:34;26.40;39.70
50067;DHT22;35952;52.524;13.340;2023-05-10T08:15:59;25.60;40.10
50067;DHT22;35952;52.524;13.340;2023-05-10T08:18:25;26.50;40.40
50067;DHT22;35952;52.524;13.340;2023-05-10T08:20:51;26.80;39.80
50067;DHT22;35952;52.524;13.340;2023-05-10T08:23:16;27.60;38.90
50067;DHT22;35952;52.524;13.340;2023-05-10T08:25:42;27.30;39.00
50067;DHT22;35952;52.524;13.340;2023-05-10T08:28:07;26.20;39.60
50067;DHT22;35952;52.524;13.340;2023-05-10T08:30:33;24.30;41.80
50067;DHT22;35952;52.524;13.340;2023-05-10T08:32:58;25.40;43.30
50067;DHT22;35952;52.524;13.340;2023-05-10T08:35:24;25.20;42.10
50067;DHT22;35952;52.524;13.340;2023-05-10T08:37:50;25.40;40.50
50067;DHT22;35952;52.524;13.340;2023-05-10T08:40:16;25.00;41.70
50067;DHT22;35952;52.524;13.340;2023-05-10T08:43:04;25.10;42.30
50067;DHT22;35952;52.524;13.340;2023-05-10T08:45:33;25.40;42.90
50067;DHT22;35952;52.524;13.340;2023-05-10T08:48:02;26.30;42.20
50067;DHT22;35952;52.524;13.340;2023-05-10T08:50:30;26.50;40.60
50067;DHT22;35952;52.524;13.340;2023-05-10T08:52:59;26.40;39.80
50067;DHT22;35952;52.524;13.340;2023-05-10T08:55:25;27.70;39.50
50067;DHT22;35952;52.524;13.340;2023-05-10T08:57:51;27.70;39.70
50067;DHT22;35952;52.524;13.340;2023-05-10T09:00:17;26.70;39.80
50067;DHT22;35952;52.524;13.340;2023-05-10T09:02:43;27.50;39.20
50067;DHT22;35952;52.524;13.340;2023-05-10T09:05:12;28.60;39.30
50067;DHT22;35952;52.524;13.340;2023-05-10T09:07:37;26.90;39.70
50067;DHT22;35952;52.524;13.340;2023-05-10T09:10:04;27.60;38.60
50067;DHT22;35952;52.524;13.340;2023-05-10T09:12:30;28.00;38.60
50067;DHT22;35952;52.524;13.340;2023-05-10T09:14:55;27.40;37.70
50067;DHT22;35952;52.524;13.340;2023-05-10T09:17:24;27.10;38.60
50067;DHT22;35952;52.524;13.340;2023-05-10T09:19:57;27.30;38.30
50067;DHT22;35952;52.524;13.340;2023-05-10T09:22:23;27.70;39.20
50067;DHT22;35952;52.524;13.340;2023-05-10T09:25:09;28.10;37.50
50067;DHT22;35952;52.524;13.340;2023-05-10T09:27:37;27.00;39.30
50067;DHT22;35952;52.524;13.340;2023-05-10T09:30:04;26.00;39.90
50067;DHT22;35952;52.524;13.340;2023-05-10T09:32:40;26.20;39.80
50067;DHT22;35952;52.524;13.340;2023-05-10T09:35:15;26.00;40.60
50067;DHT22;35952;52.524;13.340;2023-05-10T09:37:42;25.00;41.80
50067;DHT22;35952;52.524;13.340;2023-05-10T09:40:28;25.60;41.30
50067;DHT22;35952;52.524;13.340;2023-05-10T09:42:56;26.80;41.50
50067;DHT22;35952;52.524;13.340;2023-05-10T09:45:23;26.70;40.00
50067;DHT22;35952;52.524;13.340;2023-05-10T09:47:49;26.60;40.00
50067;DHT22;35952;52.524;13.340;2023-05-10T09:50:15;26.40;39.30
50067;DHT22;35952;52.524;13.340;2023-05-10T09:52:48;26.20;40.50
50067;DHT22;35952;52.524;13.340;2023-05-10T09:55:15;26.20;41.80
50067;DHT22;35952;52.524;13.340;2023-05-10T09:57:40;26.50;42.70
50067;DHT22;35952;52.524;13.340;2023-05-10T10:00:06;27.00;39.80
50067;DHT22;35952;52.524;13.340;2023-05-10T10:02:33;27.70;40.10
50067;DHT22;35952;52.524;13.340;2023-05-10T10:05:01;29.70;40.30
50067;DHT22;35952;52.524;13.340;2023-05-10T10:07:26;29.70;37.50
50067;DHT22;35952;52.524;13.340;2023-05-10T10:09:53;30.50;36.90
50067;DHT22;35952;52.524;13.340;2023-05-10T10:12:19;30.70;35.60
50067;DHT22;35952;52.524;13.340;2023-05-10T10:14:47;30.80;35.20
50067;DHT22;35952;52.524;13.340;2023-05-10T10:17:13;30.80;35.00
50067;DHT22;35952;52.524;13.340;2023-05-10T10:19:39;30.90;34.30
50067;DHT22;35952;52.524;13.340;2023-05-10T10:22:05;31.10;34.50
50067;DHT22;35952;52.524;13.340;2023-05-10T10:24:31;30.90;34.20
50067;DHT22;35952;52.524;13.340;2023-05-10T10:27:04;31.70;33.90
50067;DHT22;35952;52.524;13.340;2023-05-10T10:29:41;32.50;34.20
50067;DHT22;35952;52.524;13.340;2023-05-10T10:32:19;31.70;33.30
50067;DHT22;35952;52.524;13.340;2023-05-10T10:34:47;31.80;32.90
50067;DHT22;35952;52.524;13.340;2023-05-10T10:37:12;31.20;34.10
50067;DHT22;35952;52.524;13.340;2023-05-10T10:39:38;31.40;33.80
50067;DHT22;35952;52.524;13.340;2023-05-10T10:42:04;30.50;34.70
50067;DHT22;35952;52.524;13.340;2023-05-10T10:49:52;30.80;34.90
50067;DHT22;35952;52.524;13.340;2023-05-10T10:52:30;28.40;36.60
50067;DHT22;35952;52.524;13.340;2023-05-10T11:02:48;27.20;38.90
50067;DHT22;35952;52.524;13.340;2023-05-10T11:05:33;25.80;39.30
50067;DHT22;35952;52.524;13.340;2023-05-10T11:13:30;25.80;40.50
50067;DHT22;35952;52.524;13.340;2023-05-10T11:15:57;26.30;39.80
50067;DHT22;35952;52.524;13.340;2023-05-10T11:20:52;27.90;37.50
50067;DHT22;35952;52.524;13.340;2023-05-10T11:23:18;27.80;37.20
50067;DHT22;35952;52.524;13.340;2023-05-10T11:25:45;28.10;37.30
50067;DHT22;35952;52.524;13.340;2023-05-10T11:28:12;28.20;36.60
50067;DHT22;35952;52.524;13.340;2023-05-10T11:30:39;27.30;38.60
50067;DHT22;35952;52.524;13.340;2023-05-10T11:33:06;27.30;39.50
50067;DHT22;35952;52.524;13.340;2023-05-10T11:35:37;26.60;39.30
50067;DHT22;35952;52.524;13.340;2023-05-10T11:38:08;27.00;42.00
50067;DHT22;35952;52.524;13.340;2023-05-10T11:40:35;28.50;38.10
50067;DHT22;35952;52.524;13.340;2023-05-10T11:43:01;28.00;37.40
50067;DHT22;35952;52.524;13.340;2023-05-10T11:45:27;27.10;38.10
50067;DHT22;35952;52.524;13.340;2023-05-10T11:47:54;26.40;38.50
50067;DHT22;35952;52.524;13.340;2023-05-10T11:50:20;26.60;39.20
50067;DHT22;35952;52.524;13.340;2023-05-10T11:52:50;26.00;39.50
50067;DHT22;35952;52.524;13.340;2023-05-10T11:55:16;25.80;39.40
50067;DHT22;35952;52.524;13.340;2023-05-10T11:57:42;25.00;39.60
50067;DHT22;35952;52.524;13.340;2023-05-10T12:00:10;25.40;40.50
50067;DHT22;35952;52.524;13.340;2023-05-10T12:02:36;25.90;39.20
50067;DHT22;35952;52.524;13.340;2023-05-10T12:05:03;26.10;38.90
50067;DHT22;35952;52.524;13.340;2023-05-10T12:07:28;25.40;41.10
50067;DHT22;35952;52.524;13.340;2023-05-10T12:10:11;25.80;41.20
50067;DHT22;35952;52.524;13.340;2023-05-10T12:12:41;25.30;40.20
50067;DHT22;35952;52.524;13.340;2023-05-10T12:15:12;25.60;40.40
50067;DHT22;35952;52.524;13.340;2023-05-10T12:17:39;26.90;39.70
50067;DHT22;35952;52.524;13.340;2023-05-10T12:20:24;28.80;36.60
50067;DHT22;35952;52.524;13.340;2023-05-10T12:22:57;27.80;36.30
50067;DHT22;35952;52.524;13.340;2023-05-10T12:25:24;29.70;35.90
50067;DHT22;35952;52.524;13.340;2023-05-10T12:27:57;30.50;33.90
50067;DHT22;35952;52.524;13.340;2023-05-10T12:30:33;32.40;33.10
50067;DHT22;35952;52.524;13.340;2023-05-10T12:33:09;30.90;32.00
50067;DHT22;35952;52.524;13.340;2023-05-10T12:35:54;29.20;33.80
50067;DHT22;35952;52.524;13.340;2023-05-10T12:38:34;27.90;35.70
50067;DHT22;35952;52.524;13.340;2023-05-10T12:41:02;27.00;37.40
50067;DHT22;35952;52.524;13.340;2023-05-10T12:43:29;26.60;38.10
50067;DHT22;35952;52.524;13.340;2023-05-10T12:45:55;28.50;37.10
50067;DHT22;35952;52.524;13.340;2023-05-10T12:48:20;28.80;35.00
50067;DHT22;35952;52.524;13.340;2023-05-10T12:50:46;28.10;36.30
50067;DHT22;35952;52.524;13.340;2023-05-10T12:53:13;28.80;36.30
50067;DHT22;35952;52.524;13.340;2023-05-10T12:55:41;28.00;37.40
50067;DHT22;35952;52.524;13.340;2023-05-10T12:58:07;28.00;37.50
50067;DHT22;35952;52.524;13.340;2023-05-10T13:00:32;27.40;39.20
50067;DHT22;35952;52.524;13.340;2023-05-10T13:02:58;28.60;38.70
50067;DHT22;35952;52.524;13.340;2023-05-10T13:05:23;29.30;36.60
50067;DHT22;35952;52.524;13.340;2023-05-10T13:07:48;29.10;37.80
50067;DHT22;35952;52.524;13.340;2023-05-10T13:13:37;30.60;33.30
50067;DHT22;35952;52.524;13.340;2023-05-10T13:16:03;30.40;33.50
50067;DHT22;35952;52.524;13.340;2023-05-10T13:18:29;29.00;34.10
50067;DHT22;35952;52.524;13.340;2023-05-10T13:20:54;32.20;33.20
50067;DHT22;35952;52.524;13.340;2023-05-10T13:23:20;33.40;30.70
50067;DHT22;35952;52.524;13.340;2023-05-10T13:25:46;34.60;30.40
50067;DHT22;35952;52.524;13.340;2023-05-10T13:28:14;33.20;30.40
50067;DHT22;35952;52.524;13.340;2023-05-10T13:30:40;31.60;32.60
50067;DHT22;35952;52.524;13.340;2023-05-10T13:33:05;31.20;32.80
50067;DHT22;35952;52.524;13.340;2023-05-10T13:35:31;30.60;33.20
50067;DHT22;35952;52.524;13.340;2023-05-10T13:37:56;29.20;34.30
50067;DHT22;35952;52.524;13.340;2023-05-10T13:40:23;27.90;36.30
50067;DHT22;35952;52.524;13.340;2023-05-10T13:42:48;30.60;34.60
50067;DHT22;35952;52.524;13.340;2023-05-10T13:45:13;29.70;33.90
50067;DHT22;35952;52.524;13.340;2023-05-10T13:47:39;31.20;33.20
50067;DHT22;35952;52.524;13.340;2023-05-10T13:50:05;31.20;31.30
50067;DHT22;35952;52.524;13.340;2023-05-10T13:52:31;29.50;32.90
50067;DHT22;35952;52.524;13.340;2023-05-10T13:54:56;30.40;33.00
50067;DHT22;35952;52.524;13.340;2023-05-10T13:57:22;32.80;30.30
50067;DHT22;35952;52.524;13.340;2023-05-10T13:59:48;32.00;31.70
50067;DHT22;35952;52.524;13.340;2023-05-10T14:02:13;31.90;30.60
50067;DHT22;35952;52.524;13.340;2023-05-10T14:04:39;33.10;29.90
50067;DHT22;35952;52.524;13.340;2023-05-10T14:07:04;32.60;31.50
50067;DHT22;35952;52.524;13.340;2023-05-10T14:09:30;32.40;29.90
50067;DHT22;35952;52.524;13.340;2023-05-10T14:11:56;33.20;30.20
50067;DHT22;35952;52.524;13.340;2023-05-10T14:14:21;29.70;32.90
50067;DHT22;35952;52.524;13.340;2023-05-10T14:16:47;30.90;32.00
50067;DHT22;35952;52.524;13.340;2023-05-10T14:19:12;29.10;32.00
50067;DHT22;35952;52.524;13.340;2023-05-10T14:21:38;27.80;33.60
50067;DHT22;35952;52.524;13.340;2023-05-10T14:24:04;27.20;36.30
50067;DHT22;35952;52.524;13.340;2023-05-10T14:26:29;26.50;35.90
50067;DHT22;35952;52.524;13.340;2023-05-10T14:28:58;26.40;36.30
50067;DHT22;35952;52.524;13.340;2023-05-10T14:31:24;26.60;36.50
50067;DHT22;35952;52.524;13.340;2023-05-10T14:33:53;26.40;36.50
50067;DHT22;35952;52.524;13.340;2023-05-10T14:36:18;26.10;36.40
50067;DHT22;35952;52.524;13.340;2023-05-10T14:39:11;26.30;36.80
50067;DHT22;35952;52.524;13.340;2023-05-10T14:41:38;26.50;36.90
50067;DHT22;35952;52.524;13.340;2023-05-10T14:44:06;25.50;36.70
50067;DHT22;35952;52.524;13.340;2023-05-10T14:46:31;25.30;37.80
50067;DHT22;35952;52.524;13.340;2023-05-10T14:48:57;25.10;37.80
50067;DHT22;35952;52.524;13.340;2023-05-10T14:51:23;24.90;38.60
50067;DHT22;35952;52.524;13.340;2023-05-10T14:53:49;24.90;38.10
50067;DHT22;35952;52.524;13.340;2023-05-10T14:56:15;25.10;38.00
50067;DHT22;35952;52.524;13.340;2023-05-10T14:58:40;25.40;37.20
50067;DHT22;35952;52.524;13.340;2023-05-10T15:01:06;25.30;37.70
50067;DHT22;35952;52.524;13.340;2023-05-10T15:03:31;25.50;38.20
50067;DHT22;35952;52.524;13.340;2023-05-10T15:05:57;24.50;39.20
50067;DHT22;35952;52.524;13.340;2023-05-10T15:08:23;24.20;40.00
50067;DHT22;35952;52.524;13.340;2023-05-10T15:10:51;24.20;40.20
50067;DHT22;35952;52.524;13.340;2023-05-10T15:13:17;24.20;40.10
50067;DHT22;35952;52.524;13.340;2023-05-10T15:15:43;23.70;40.10
50067;DHT22;35952;52.524;13.340;2023-05-10T15:18:09;23.70;40.40
50067;DHT22;35952;52.524;13.340;2023-05-10T15:20:35;23.80;40.70
50067;DHT22;35952;52.524;13.340;2023-05-10T15:23:00;23.70;40.60
50067;DHT22;35952;52.524;13.340;2023-05-10T15:25:26;23.50;41.10
50067;DHT22;35952;52.524;13.340;2023-05-10T15:27:54;23.80;41.40
50067;DHT22;35952;52.524;13.340;2023-05-10T15:30:20;24.00;41.00
50067;DHT22;35952;52.524;13.340;2023-05-10T15:32:49;24.00;41.20
50067;DHT22;35952;52.524;13.340;2023-05-10T15:35:14;23.80;41.00
50067;DHT22;35952;52.524;13.340;2023-05-10T15:37:40;23.40;41.00
50067;DHT22;35952;52.524;13.340;2023-05-10T15:40:06;23.30;41.50
50067;DHT22;35952;52.524;13.340;2023-05-10T15:42:31;23.30;41.90
50067;DHT22;35952;52.524;13.340;2023-05-10T15:44:57;23.20;41.60
50067;DHT22;35952;52.524;13.340;2023-05-10T15:47:23;22.90;42.10
50067;DHT22;35952;52.524;13.340;2023-05-10T15:49:49;23.00;42.20
50067;DHT22;35952;52.524;13.340;2023-05-10T15:52:15;23.20;42.30
50067;DHT22;35952;52.524;13.340;2023-05-10T15:54:41;23.10;42.50